Time;durP1;ratioP1;P1;durP2;ratioP2;P2;SDS_P1;SDS_P2;PMS_P1;PMS_P2;Temp;Humidity;BMP_temperature;BMP_pressure;BME280_temperature;BME280_humidity;BME280_pressure;Samples;Min_cycle;Max_cycle;Signal;HPM_P1;HPM_P2
2022/06/16 00:02:05;;;;;;;3.85;3.12;;;;;;;16.71;58.87;100007.63;1703019;82;20931;-68
2022/06/16 00:04:33;;;;;;;3.35;3.05;;;;;;;16.69;58.95;100008.47;1660452;84;21028;-68
2022/06/16 00:07:01;;;;;;;5.10;2.95;;;;;;;16.67;59.05;100008.73;1665750;84;20984;-70
2022/06/16 00:09:30;;;;;;;5.30;2.50;;;;;;;16.65;59.15;100010.91;1701677;83;21666;-68
2022/06/16 00:11:56;;;;;;;6.08;2.60;;;;;;;16.63;59.29;100010.40;1701689;83;20959;-70
2022/06/16 00:14:27;;;;;;;4.50;2.25;;;;;;;16.61;59.49;100009.05;1691645;83;21518;-68
2022/06/16 00:16:54;;;;;;;3.27;2.58;;;;;;;16.57;59.67;100008.23;1717620;83;21059;-68
2022/06/16 00:19:23;;;;;;;3.33;2.72;;;;;;;16.54;59.88;100014.78;1692657;83;21521;-70
2022/06/16 00:21:51;;;;;;;7.90;2.42;;;;;;;16.51;60.12;100005.81;1692433;84;21397;-67
2022/06/16 00:24:18;;;;;;;2.40;2.10;;;;;;;16.48;60.27;100004.48;1677821;83;21021;-71
2022/06/16 00:26:45;;;;;;;2.55;2.35;;;;;;;16.47;60.44;100012.91;1672234;85;21030;-71
2022/06/16 00:29:12;;;;;;;6.62;2.50;;;;;;;16.44;60.58;100004.78;1703538;83;21018;-68
2022/06/16 00:31:39;;;;;;;2.83;2.17;;;;;;;16.43;60.64;100002.34;1652911;85;21510;-74
2022/06/16 00:34:06;;;;;;;2.80;2.40;;;;;;;16.41;60.71;100003.16;1671663;85;21253;-72
2022/06/16 00:36:37;;;;;;;4.35;3.12;;;;;;;16.41;60.75;99999.08;1671720;85;20984;-72
2022/06/16 00:39:04;;;;;;;4.08;2.33;;;;;;;16.40;60.83;100000.98;1674036;83;21550;-71
2022/06/16 00:41:31;;;;;;;6.62;2.75;;;;;;;16.39;60.87;100001.28;1698061;83;21037;-71
2022/06/16 00:44:01;;;;;;;4.87;2.83;;;;;;;16.40;60.92;100005.63;1711337;83;21537;-70
2022/06/16 00:46:29;;;;;;;3.30;2.37;;;;;;;16.38;61.01;100008.61;1710019;83;21098;-71
2022/06/16 00:48:59;;;;;;;3.72;2.67;;;;;;;16.39;61.05;100011.60;1712592;82;21075;-69
2022/06/16 00:51:48;;;;;;;3.75;3.02;;;;;;;16.38;61.16;100019.47;1711561;83;21035;-70
2022/06/16 00:54:23;;;;;;;2.92;2.65;;;;;;;16.37;61.21;100009.70;1668089;83;21544;-74
2022/06/16 00:56:52;;;;;;;3.60;2.45;;;;;;;16.35;61.26;100014.62;1681372;85;21044;-73
2022/06/16 00:59:19;;;;;;;2.92;2.42;;;;;;;16.34;61.30;100010.27;1676012;83;21184;-68
2022/06/16 01:01:47;;;;;;;2.62;2.37;;;;;;;16.33;61.35;100014.07;1671418;83;20988;-70
2022/06/16 01:07:01;;;;;;;6.03;2.75;;;;;;;16.31;61.56;100015.42;1712927;83;20908;-73
2022/06/16 01:09:29;;;;;;;3.00;1.90;;;;;;;16.30;61.76;100013.83;1668437;84;21073;-72
2022/06/16 01:15:42;;;;;;;4.17;2.92;;;;;;;16.32;61.98;100010.27;1679955;85;21095;-72
2022/06/16 01:18:36;;;;;;;3.52;2.35;;;;;;;16.32;61.85;100005.66;1697124;83;21536;-73
2022/06/16 01:21:17;;;;;;;3.35;2.45;;;;;;;16.30;61.76;100005.69;1654236;83;21026;-77
2022/06/16 01:23:49;;;;;;;;;;;;;;;16.25;61.91;100011.14;1656460;86;21096;-76
2022/06/16 01:26:31;;;;;;;2.52;2.27;;;;;;;16.19;62.20;100008.17;1670843;84;21168;-75
2022/06/16 01:29:24;;;;;;;6.33;2.70;;;;;;;16.13;62.52;100013.63;1697639;84;21028;-77
2022/06/16 01:32:09;;;;;;;3.85;3.27;;;;;;;16.07;62.73;100010.66;1697784;83;21147;-74
2022/06/16 01:34:56;;;;;;;3.67;3.22;;;;;;;16.02;63.01;100012.57;1697592;83;21071;-74
2022/06/16 01:37:40;;;;;;;3.20;2.67;;;;;;;15.94;63.26;100009.91;1697123;83;21041;-73
2022/06/16 01:40:25;;;;;;;4.45;2.67;;;;;;;15.90;63.51;100008.84;1695082;82;21965;-74
2022/06/16 01:43:14;;;;;;;3.52;2.70;;;;;;;15.84;63.73;100010.48;1697499;83;21073;-74
2022/06/16 01:46:06;;;;;;;2.95;2.70;;;;;;;15.77;64.00;100004.01;1697597;84;21028;-74
2022/06/16 01:48:34;;;;;;;4.12;2.92;;;;;;;15.72;64.24;100006.73;1697470;83;21557;-75
2022/06/16 01:51:40;;;;;;;4.20;3.30;;;;;;;15.66;64.62;100002.41;1696720;83;21080;-75
2022/06/16 01:54:41;;;;;;;2.87;2.60;;;;;;;15.63;64.84;100007.03;1671334;85;21227;-75
2022/06/16 01:57:26;;;;;;;5.00;3.70;;;;;;;15.62;65.16;100010.83;1671239;85;21079;-75
2022/06/16 02:00:09;;;;;;;7.37;4.45;;;;;;;15.63;65.37;100006.46;1622491;85;21526;-74
2022/06/16 02:02:40;;;;;;;4.12;3.02;;;;;;;15.64;65.62;100009.45;1680799;84;20908;-74
2022/06/16 02:05:22;;;;;;;5.72;3.10;;;;;;;15.66;65.70;100007.83;1693688;83;21598;-74
2022/06/16 02:07:56;;;;;;;6.12;4.08;;;;;;;15.66;65.69;100011.89;1693511;82;20971;-74
2022/06/16 02:10:29;;;;;;;6.85;3.12;;;;;;;15.68;65.82;100019.22;1711791;82;20901;-73
2022/06/16 02:12:58;;;;;;;4.28;2.70;;;;;;;15.70;65.86;100014.31;1724652;83;24078;-74
2022/06/16 02:15:59;;;;;;;4.00;2.90;;;;;;;15.71;65.86;100015.95;1697135;83;21184;-73
2022/06/16 02:18:30;;;;;;;3.33;2.98;;;;;;;15.73;65.78;100015.69;1720764;82;21028;-74
2022/06/16 02:21:19;;;;;;;4.42;3.15;;;;;;;15.74;65.55;100021.35;1686200;84;21755;-74
2022/06/16 02:23:47;;;;;;;3.67;3.08;;;;;;;15.73;65.45;100021.89;1656530;85;21129;-71
2022/06/16 02:26:17;;;;;;;4.92;3.05;;;;;;;15.73;65.53;100025.17;1689173;84;21486;-73
2022/06/16 02:28:55;;;;;;;4.65;3.40;;;;;;;15.73;65.42;100025.96;1698270;83;21012;-72
2022/06/16 02:32:05;;;;;;;3.60;3.05;;;;;;;15.72;65.44;100031.14;1672818;85;21474;-73
2022/06/16 02:34:55;;;;;;;6.60;3.85;;;;;;;15.69;65.54;100031.13;1610278;89;21504;-74
2022/06/16 02:37:54;;;;;;;6.10;3.60;;;;;;;15.69;65.66;100039.80;1627744;87;20971;-73
2022/06/16 02:40:29;;;;;;;4.10;2.85;;;;;;;15.68;65.75;100036.28;1631542;88;21105;-75
2022/06/16 02:43:27;;;;;;;5.03;3.22;;;;;;;15.66;65.93;100037.66;1637154;86;20931;-75
2022/06/16 02:46:13;;;;;;;4.50;3.60;;;;;;;15.64;66.14;100034.39;1631371;86;21152;-76
2022/06/16 02:48:53;;;;;;;6.87;4.45;;;;;;;15.61;66.51;100037.66;1633081;86;22384;-73
2022/06/16 02:51:41;;;;;;;6.08;4.40;;;;;;;15.58;66.67;100040.39;1633427;87;21062;-73
2022/06/16 02:54:20;;;;;;;5.25;4.50;;;;;;;15.56;67.00;100044.45;1631274;86;20928;-71
2022/06/16 02:57:05;;;;;;;9.70;5.58;;;;;;;15.54;67.26;100052.06;1624868;86;21023;-73
2022/06/16 02:59:40;;;;;;;7.60;5.17;;;;;;;15.54;67.71;100043.93;1631387;88;21212;-73
2022/06/16 03:02:13;;;;;;;6.95;5.72;;;;;;;15.55;68.12;100044.17;1631472;86;21152;-74
2022/06/16 03:04:43;;;;;;;10.95;6.05;;;;;;;15.54;68.73;100043.93;1592146;89;21859;-74
2022/06/16 03:07:13;;;;;;;12.75;5.65;;;;;;;15.55;69.24;100054.48;1613553;87;21555;-74
2022/06/16 03:09:39;;;;;;;14.30;7.53;;;;;;;15.59;69.67;100049.31;1631407;88;21043;-74
2022/06/16 03:12:08;;;;;;;10.80;6.37;;;;;;;15.62;69.86;100048.78;1631473;86;21219;-77
2022/06/16 03:14:38;;;;;;;10.60;6.55;;;;;;;15.68;70.05;100048.48;1660976;86;21216;-73
2022/06/16 03:17:05;;;;;;;13.15;6.22;;;;;;;15.76;70.01;100046.31;1660222;86;20972;-75
2022/06/16 03:19:35;;;;;;;11.22;6.78;;;;;;;15.82;69.90;100051.45;1596005;87;21084;-73
2022/06/16 03:22:03;;;;;;;6.62;5.12;;;;;;;15.87;69.79;100039.23;1634979;87;21050;-75
2022/06/16 03:24:30;;;;;;;8.90;7.00;;;;;;;15.93;69.58;100041.36;1592982;86;21568;-72
2022/06/16 03:26:57;;;;;;;7.72;5.20;;;;;;;15.97;69.46;100041.11;1715999;83;21140;-72
2022/06/16 03:29:25;;;;;;;8.75;4.85;;;;;;;16.03;69.16;100039.98;1706594;83;21102;-74
2022/06/16 03:31:55;;;;;;;8.88;5.53;;;;;;;16.08;68.95;100043.48;1701961;83;21566;-73
2022/06/16 03:34:24;;;;;;;7.85;5.33;;;;;;;16.15;68.58;100043.20;1691601;83;21021;-71
2022/06/16 03:36:52;;;;;;;6.22;4.53;;;;;;;16.22;68.14;100040.98;1692296;84;21107;-73
2022/06/16 03:39:22;;;;;;;10.03;4.87;;;;;;;16.30;67.98;100039.07;1691160;84;21180;-73
2022/06/16 03:41:50;;;;;;;8.30;5.45;;;;;;;16.36;67.72;100042.55;1691392;83;21031;-73
2022/06/16 03:44:17;;;;;;;5.95;4.67;;;;;;;16.43;67.29;100042.52;1694885;83;21546;-75
2022/06/16 03:46:46;;;;;;;7.75;4.28;;;;;;;16.48;67.00;100043.86;1688345;83;21088;-75
2022/06/16 03:49:14;;;;;;;6.15;3.95;;;;;;;16.56;66.84;100049.23;1688485;85;21017;-71
2022/06/16 03:51:45;;;;;;;8.78;4.28;;;;;;;16.64;66.73;100049.23;1688375;85;21790;-74
2022/06/16 03:54:15;;;;;;;5.95;4.12;;;;;;;16.69;66.71;100047.85;1705470;83;20936;-73
2022/06/16 03:56:42;;;;;;;6.03;3.55;;;;;;;16.76;66.38;100041.55;1691956;83;20953;-74
2022/06/16 03:59:12;;;;;;;7.05;4.17;;;;;;;16.82;66.38;100039.06;1691104;83;21553;-72
2022/06/16 04:01:40;;;;;;;6.80;3.90;;;;;;;16.87;66.17;100039.84;1663876;84;21107;-71
2022/06/16 04:04:08;;;;;;;5.83;4.80;;;;;;;16.93;66.02;100038.69;1688727;83;21115;-73
2022/06/16 04:06:47;;;;;;;5.72;4.15;;;;;;;16.99;65.90;100038.11;1688496;84;20977;-73
2022/06/16 04:09:16;;;;;;;5.95;3.95;;;;;;;17.06;65.31;100041.33;1688298;83;20961;-73
2022/06/16 04:11:43;;;;;;;3.92;2.98;;;;;;;17.12;64.80;100038.03;1689595;83;21591;-74
2022/06/16 04:14:11;;;;;;;14.20;10.13;;;;;;;17.17;63.52;100035.27;1679624;83;21028;-72
2022/06/16 04:16:46;;;;;;;5.62;3.95;;;;;;;17.23;63.67;100040.91;1687685;83;21078;-72
2022/06/16 04:19:17;;;;;;;;;;;;;;;17.30;63.90;100041.41;1690920;83;21044;-72
2022/06/16 04:21:47;;;;;;;6.95;3.33;;;;;;;17.36;63.76;100041.05;1692121;84;20111;-73
2022/06/16 04:24:20;;;;;;;7.87;5.50;;;;;;;17.39;62.66;100048.66;1690177;84;21060;-73
2022/06/16 04:26:51;;;;;;;6.28;3.25;;;;;;;17.45;62.61;100053.51;1664633;84;21068;-72
2022/06/16 04:29:18;;;;;;;5.45;3.45;;;;;;;17.48;62.41;100048.03;1691712;83;21322;-71
2022/06/16 04:31:46;;;;;;;4.78;3.05;;;;;;;17.50;62.36;100048.02;1688909;82;21055;-71
2022/06/16 04:34:13;;;;;;;7.67;3.22;;;;;;;17.54;62.31;100049.61;1688414;85;20972;-71
2022/06/16 04:36:41;;;;;;;6.58;3.37;;;;;;;17.58;62.22;100047.94;1688150;85;21064;-73
2022/06/16 04:39:15;;;;;;;5.78;3.25;;;;;;;17.61;62.10;100053.64;1722800;83;21058;-72
2022/06/16 04:41:44;;;;;;;4.15;3.02;;;;;;;17.64;62.03;100051.72;1725323;83;21813;-73
2022/06/16 04:44:12;;;;;;;3.15;2.80;;;;;;;17.67;61.54;100047.05;1695930;83;21047;-74
2022/06/16 04:46:41;;;;;;;4.25;3.22;;;;;;;17.70;61.50;100056.53;1691927;83;21064;-75
2022/06/16 04:49:11;;;;;;;7.72;2.80;;;;;;;17.76;61.70;100059.47;1692064;84;21039;-74
2022/06/16 04:51:41;;;;;;;6.87;4.12;;;;;;;17.81;61.24;100062.14;1692433;83;20969;-76
2022/06/16 04:54:09;;;;;;;3.42;3.10;;;;;;;17.87;61.30;100055.55;1678641;83;21166;-72
2022/06/16 04:56:41;;;;;;;5.22;3.00;;;;;;;17.93;61.13;100061.75;1665414;86;21031;-72
2022/06/16 04:59:13;;;;;;;2.98;2.75;;;;;;;17.96;60.25;100061.98;1676755;84;21036;-72
2022/06/16 05:01:46;;;;;;;5.03;2.75;;;;;;;17.99;59.91;100073.64;1691151;83;21032;-73
2022/06/16 05:04:15;;;;;;;5.55;2.45;;;;;;;18.04;60.13;100063.24;1692249;83;21629;-73
2022/06/16 05:06:46;;;;;;;3.37;2.85;;;;;;;18.06;59.63;100068.67;1671348;83;21821;-73
2022/06/16 05:09:15;;;;;;;3.30;2.92;;;;;;;18.10;59.49;100065.62;1724320;83;21049;-73
2022/06/16 05:11:48;;;;;;;6.40;3.77;;;;;;;18.16;59.50;100066.38;1710346;83;21522;-74
2022/06/16 05:14:29;;;;;;;4.42;3.27;;;;;;;18.20;59.61;100056.53;1690169;83;21502;-73
2022/06/16 05:17:07;;;;;;;3.40;3.08;;;;;;;18.25;59.32;100066.81;1691419;83;21021;-74
2022/06/16 05:19:35;;;;;;;5.75;3.22;;;;;;;18.32;59.25;100061.57;1640660;84;21276;-75
2022/06/16 05:22:05;;;;;;;4.03;3.55;;;;;;;18.35;59.34;100069.96;1654091;84;21177;-74
2022/06/16 05:24:52;;;;;;;3.55;2.60;;;;;;;18.39;59.58;100073.72;1693454;83;21053;-73
2022/06/16 05:27:39;;;;;;;6.80;3.08;;;;;;;18.43;59.27;100070.66;1712198;83;20987;-73
2022/06/16 05:30:24;;;;;;;5.72;3.47;;;;;;;18.47;59.01;100073.05;1691897;83;21169;-73
2022/06/16 05:33:10;;;;;;;4.10;3.40;;;;;;;18.51;58.80;100071.36;1618425;87;21180;-75
2022/06/16 05:35:59;;;;;;;4.92;3.25;;;;;;;18.54;58.64;100069.47;1611276;89;21081;-76
2022/06/16 05:38:37;;;;;;;7.25;3.33;;;;;;;18.55;58.59;100067.55;1644290;86;21521;-75
2022/06/16 05:41:10;;;;;;;3.65;2.65;;;;;;;18.55;58.83;100072.45;1661513;86;21066;-75
2022/06/16 05:43:55;;;;;;;3.33;3.02;;;;;;;18.60;58.65;100064.22;1689266;83;21087;-74
2022/06/16 05:46:24;;;;;;;6.33;3.02;;;;;;;18.66;58.79;100071.19;1670187;83;22220;-74
2022/06/16 05:48:53;;;;;;;5.70;2.98;;;;;;;18.69;58.71;100077.44;1690203;83;21045;-73
2022/06/16 05:51:22;;;;;;;3.50;3.08;;;;;;;18.74;58.02;100076.55;1692220;84;21068;-73
2022/06/16 05:54:02;;;;;;;3.77;3.15;;;;;;;18.77;57.74;100065.05;1709638;83;21007;-74
2022/06/16 05:56:33;;;;;;;8.73;2.98;;;;;;;18.82;57.83;100073.16;1725350;83;20967;-77
2022/06/16 05:59:00;;;;;;;5.28;2.95;;;;;;;18.86;57.87;100066.00;1692118;84;21869;-72
2022/06/16 06:01:28;;;;;;;5.10;2.17;;;;;;;18.92;57.68;100073.56;1694716;83;20996;-76
2022/06/16 06:03:56;;;;;;;2.22;1.92;;;;;;;18.96;56.43;100070.50;1664422;84;20976;-73
2022/06/16 06:06:23;;;;;;;4.40;2.55;;;;;;;19.01;56.12;100073.95;1692190;84;21035;-74
2022/06/16 06:17:18;;;;;;;1.70;1.60;;;;;;;19.19;52.79;100072.30;1711406;83;21044;-74
2022/06/16 06:19:46;;;;;;;2.05;1.45;;;;;;;19.23;52.74;100072.55;1691282;83;21063;-72
2022/06/16 06:22:19;;;;;;;1.98;1.50;;;;;;;19.27;52.45;100075.74;1692220;84;21493;-74
2022/06/16 06:24:55;;;;;;;2.42;2.22;;;;;;;19.32;51.42;100074.30;1691715;83;21063;-73
2022/06/16 06:27:35;;;;;;;4.72;1.37;;;;;;;19.38;51.25;100070.36;1689662;83;21137;-72
2022/06/16 06:30:07;;;;;;;2.62;1.80;;;;;;;19.44;51.44;100064.29;1703219;83;21060;-73
2022/06/16 06:32:34;;;;;;;2.83;1.65;;;;;;;19.48;51.45;100068.03;1730115;83;21046;-75
2022/06/16 06:35:04;;;;;;;2.05;1.40;;;;;;;19.54;51.26;100073.67;1727654;83;21058;-72
2022/06/16 06:37:31;;;;;;;4.47;1.95;;;;;;;19.58;50.87;100080.95;1637343;86;22889;-74
2022/06/16 06:39:58;;;;;;;2.45;1.47;;;;;;;19.63;50.61;100079.23;1653295;86;20916;-76
2022/06/16 06:42:25;;;;;;;3.80;1.52;;;;;;;19.66;50.43;100086.84;1669538;84;21058;-74
2022/06/16 06:44:53;;;;;;;3.58;2.45;;;;;;;19.67;50.04;100080.25;1653964;84;21081;-75
2022/06/16 06:47:23;;;;;;;4.37;2.98;;;;;;;19.68;50.12;100077.79;1649720;85;21095;-77
2022/06/16 06:49:51;;;;;;;1.57;1.32;;;;;;;19.70;50.30;100080.48;1636431;87;21142;-76
2022/06/16 06:52:19;;;;;;;1.32;1.20;;;;;;;19.73;50.01;100074.97;1636337;87;21524;-74
2022/06/16 06:54:46;;;;;;;1.92;1.32;;;;;;;19.78;49.17;100086.61;1635041;86;20983;-72
2022/06/16 06:57:21;;;;;;;2.92;1.47;;;;;;;19.80;49.08;100081.67;1632277;87;21055;-74
2022/06/16 06:59:48;;;;;;;2.77;1.52;;;;;;;19.84;48.86;100086.78;1633260;87;21039;-75
2022/06/16 07:02:15;;;;;;;4.03;1.87;;;;;;;19.90;48.82;100102.52;1636322;86;21154;-74
2022/06/16 07:04:43;;;;;;;2.70;1.37;;;;;;;19.94;48.78;100096.15;1634851;86;21003;-73
2022/06/16 07:07:12;;;;;;;2.17;1.25;;;;;;;19.95;48.67;100095.02;1636191;87;21028;-74
2022/06/16 07:09:40;;;;;;;1.60;1.25;;;;;;;19.97;48.47;100085.97;1636222;87;21047;-73
2022/06/16 07:12:13;;;;;;;2.40;1.50;;;;;;;20.01;48.15;100087.53;1632013;87;21166;-74
2022/06/16 07:14:38;;;;;;;1.37;1.27;;;;;;;20.04;48.19;100086.95;1631601;87;21410;-74
2022/06/16 07:17:05;;;;;;;1.98;1.70;;;;;;;20.09;48.31;100073.20;1631462;88;21095;-75
2022/06/16 07:19:34;;;;;;;1.20;1.10;;;;;;;20.15;47.36;100088.91;1645622;86;21015;-77
2022/06/16 07:22:00;;;;;;;4.12;1.47;;;;;;;20.18;46.86;100076.03;1650912;86;21106;-77
2022/06/16 07:24:27;;;;;;;1.85;1.02;;;;;;;20.24;46.99;100080.28;1634834;87;21160;-74
2022/06/16 07:26:53;;;;;;;1.15;1.10;;;;;;;20.26;47.01;100077.48;1631530;87;21275;-74
2022/06/16 07:29:19;;;;;;;2.70;1.50;;;;;;;20.30;47.12;100066.75;1626913;88;21469;-72
2022/06/16 07:31:47;;;;;;;2.98;1.20;;;;;;;20.35;45.97;100092.08;1635695;86;20995;-73
2022/06/16 07:34:15;;;;;;;2.70;1.70;;;;;;;20.39;45.34;100086.80;1644950;86;21004;-73
2022/06/16 07:36:42;;;;;;;2.98;1.47;;;;;;;20.41;45.61;100079.94;1636096;87;21094;-73
2022/06/16 07:39:09;;;;;;;1.87;1.50;;;;;;;20.43;45.73;100084.52;1685623;84;21538;-73
2022/06/16 07:41:36;;;;;;;5.53;1.70;;;;;;;20.48;45.69;100083.60;1660564;85;21203;-72
2022/06/16 07:44:11;;;;;;;2.00;1.40;;;;;;;20.52;45.38;100064.70;1626895;85;44258;-73
2022/06/16 07:46:37;;;;;;;3.42;1.57;;;;;;;20.56;45.55;100065.70;1666015;86;21131;-73
2022/06/16 07:49:07;;;;;;;3.55;1.50;;;;;;;20.57;45.23;100062.66;1665884;86;21093;-73
2022/06/16 07:51:34;;;;;;;4.22;2.00;;;;;;;20.64;45.16;100060.86;1660985;85;21512;-72
2022/06/16 07:54:01;;;;;;;3.15;1.90;;;;;;;20.71;45.29;100059.89;1644492;87;21536;-76
2022/06/16 07:56:28;;;;;;;6.90;1.60;;;;;;;20.71;45.29;100059.89;1645548;86;21078;-75
2022/06/16 07:58:55;;;;;;;2.22;1.92;;;;;;;20.82;45.16;100055.80;1642303;86;21680;-74
2022/06/16 08:01:21;;;;;;;3.58;2.15;;;;;;;20.88;44.87;100060.84;1654037;86;21153;-74
2022/06/16 08:03:48;;;;;;;2.15;1.70;;;;;;;20.98;44.55;100069.38;1632219;87;21251;-76
2022/06/16 08:06:18;;;;;;;5.05;1.72;;;;;;;21.04;44.47;100060.49;1633955;86;20936;-76
2022/06/16 08:08:45;;;;;;;2.08;1.35;;;;;;;21.13;43.03;100076.41;1633451;86;21087;-76
2022/06/16 08:13:59;;;;;;;1.47;1.30;;;;;;;21.14;42.36;100072.03;1636473;86;21024;-75
2022/06/16 08:16:30;;;;;;;1.55;1.37;;;;;;;21.14;42.36;100072.03;1633498;87;21937;-71
2022/06/16 08:18:57;;;;;;;1.98;1.40;;;;;;;21.14;42.77;100070.67;1668287;85;21557;-72
2022/06/16 08:21:24;;;;;;;3.83;1.90;;;;;;;21.20;42.85;100066.66;1686651;83;21068;-72
2022/06/16 08:23:50;;;;;;;3.45;1.67;;;;;;;21.26;42.11;100055.05;1688726;83;21050;-75
2022/06/16 08:26:17;;;;;;;5.30;1.92;;;;;;;21.37;42.87;100059.16;1689200;83;21564;-80
2022/06/16 08:28:44;;;;;;;3.33;1.80;;;;;;;21.37;42.87;100059.16;1663413;86;21147;-71
2022/06/16 08:31:12;;;;;;;2.45;2.27;;;;;;;21.44;42.33;100059.50;1674695;84;21527;-74
2022/06/16 08:33:39;;;;;;;2.80;1.70;;;;;;;21.50;42.27;100060.99;1689679;84;21072;-78
2022/06/16 08:36:08;;;;;;;2.77;1.95;;;;;;;21.57;42.27;100056.45;1686059;85;20980;-74
2022/06/16 08:38:35;;;;;;;2.27;1.77;;;;;;;21.63;42.11;100060.09;1700949;83;21150;-76
2022/06/16 08:41:11;;;;;;;2.77;2.00;;;;;;;21.63;41.85;100059.31;1687594;83;21036;-75
2022/06/16 08:44:05;;;;;;;3.50;1.75;;;;;;;21.63;41.82;100066.16;1669374;84;20930;-76
2022/06/16 08:46:52;;;;;;;3.30;2.10;;;;;;;21.62;41.95;100055.77;1688090;84;21048;-76
2022/06/16 08:49:33;;;;;;;8.58;5.00;;;;;;;21.67;42.07;100046.05;1688517;84;21009;-74
2022/06/16 08:52:20;;;;;;;3.45;2.58;;;;;;;21.79;41.67;100045.45;1703137;83;21072;-75
2022/06/16 08:54:59;;;;;;;2.87;2.58;;;;;;;21.88;41.41;100049.59;1718408;83;21082;-74
2022/06/16 08:57:38;;;;;;;4.95;2.17;;;;;;;21.97;41.18;100043.05;1687924;83;20992;-75
2022/06/16 09:00:11;;;;;;;2.90;2.27;;;;;;;22.00;41.39;100049.28;1681141;84;21075;-74
2022/06/16 09:02:52;;;;;;;5.62;2.27;;;;;;;22.02;40.96;100050.31;1689602;83;21024;-73
2022/06/16 09:05:41;;;;;;;4.08;2.47;;;;;;;22.04;41.28;100045.34;1685586;84;21565;-73
2022/06/16 09:08:44;;;;;;;4.22;2.10;;;;;;;22.06;41.23;100041.73;1687712;83;21983;-71
2022/06/16 09:11:36;;;;;;;3.22;1.80;;;;;;;22.14;41.24;100047.79;1683868;83;21119;-74
2022/06/16 09:14:12;;;;;;;3.27;2.50;;;;;;;22.28;40.68;100048.48;1689566;84;21505;-75
2022/06/16 09:16:47;;;;;;;3.72;2.27;;;;;;;22.32;40.25;100031.63;1704946;83;20917;-73
2022/06/16 09:19:36;;;;;;;2.27;1.90;;;;;;;22.36;39.41;100044.13;1717751;83;20984;-72
2022/06/16 09:22:17;;;;;;;2.27;2.05;;;;;;;22.36;39.22;100036.72;1628514;88;21165;-75
2022/06/16 09:24:57;;;;;;;7.58;2.80;;;;;;;22.41;39.71;100042.61;1658587;85;21098;-75
2022/06/16 09:27:41;;;;;;;3.50;2.40;;;;;;;22.49;40.10;100024.02;1645250;85;21571;-74
2022/06/16 09:30:18;;;;;;;4.10;2.00;;;;;;;22.59;40.21;100044.24;1712546;83;21058;-75
2022/06/16 09:32:58;;;;;;;3.08;2.47;;;;;;;22.66;40.25;100032.81;1714525;83;21024;-75
2022/06/16 09:35:32;;;;;;;5.08;2.67;;;;;;;22.67;40.47;100042.09;1704249;83;20942;-72
2022/06/16 09:38:41;;;;;;;3.08;2.17;;;;;;;22.72;40.73;100043.91;1701859;83;22178;-75
2022/06/16 09:44:15;;;;;;;3.02;2.72;;;;;;;22.72;39.80;100039.79;1699147;81;21083;-72
2022/06/16 09:46:48;;;;;;;2.27;2.08;;;;;;;22.74;39.25;100029.28;1689024;83;21147;-81
2022/06/16 09:49:26;;;;;;;2.08;1.87;;;;;;;22.80;39.00;100041.72;1691345;83;21799;-76
2022/06/16 09:51:58;;;;;;;3.25;1.37;;;;;;;22.88;38.80;100059.55;1654703;86;20987;-76
2022/06/16 09:54:29;;;;;;;3.17;1.98;;;;;;;22.94;40.08;100051.41;1688314;85;21541;-77
2022/06/16 09:57:11;;;;;;;2.33;1.72;;;;;;;22.91;40.53;100047.95;1687228;83;21332;-77
2022/06/16 09:59:49;;;;;;;2.05;1.85;;;;;;;22.92;40.60;100050.13;1689135;84;21031;-76
2022/06/16 10:02:26;;;;;;;5.58;1.92;;;;;;;22.89;40.35;100041.96;1710174;83;21397;-76
2022/06/16 10:04:54;;;;;;;2.10;1.87;;;;;;;22.90;40.33;100040.84;1719315;83;20996;-74
2022/06/16 10:07:32;;;;;;;5.67;1.65;;;;;;;22.88;40.88;100038.16;1720468;83;21060;-77
2022/06/16 10:10:17;;;;;;;2.95;2.02;;;;;;;22.92;41.01;100041.89;1691372;83;21092;-77
2022/06/16 10:13:17;;;;;;;1.98;1.52;;;;;;;22.93;40.88;100055.27;1696504;83;21115;-75
2022/06/16 10:15:53;;;;;;;8.70;1.50;;;;;;;22.88;40.63;100047.77;1695270;83;21076;-74
2022/06/16 10:18:22;;;;;;;1.72;1.42;;;;;;;22.80;40.88;100047.20;1690147;83;21102;-72
2022/06/16 10:20:48;;;;;;;4.53;1.50;;;;;;;22.68;41.14;100040.16;1692220;83;21023;-70
2022/06/16 10:23:31;;;;;;;1.92;1.22;;;;;;;22.66;41.03;100047.33;1693680;83;21014;-73
2022/06/16 10:26:02;;;;;;;2.97;1.90;;;;;;;22.65;40.70;100049.02;1690536;83;21032;-70
2022/06/16 10:28:42;;;;;;;3.45;2.67;;;;;;;22.64;40.68;100044.09;1704170;83;21118;-70
2022/06/16 10:31:08;;;;;;;3.50;1.50;;;;;;;22.64;40.79;100045.46;1689659;82;21591;-71
2022/06/16 10:33:39;;;;;;;4.20;1.60;;;;;;;22.67;41.00;100049.52;1684084;83;21051;-72
2022/06/16 10:36:10;;;;;;;2.40;1.47;;;;;;;22.67;40.94;100057.73;1689669;83;21076;-74
2022/06/16 10:38:40;;;;;;;1.47;1.27;;;;;;;22.67;41.02;100042.66;1691219;84;20990;-71
2022/06/16 10:41:23;;;;;;;3.92;2.47;;;;;;;22.69;41.04;100036.27;1689685;84;21153;-71
2022/06/16 10:43:52;;;;;;;8.93;1.72;;;;;;;22.70;41.28;100029.13;1669166;83;28509;-76
2022/06/16 10:46:31;;;;;;;3.00;1.98;;;;;;;22.73;40.80;100031.25;1668537;83;21138;-78
2022/06/16 10:49:04;;;;;;;4.05;1.35;;;;;;;22.75;40.27;100022.12;1676226;83;20913;-75
2022/06/16 10:51:34;;;;;;;4.30;1.65;;;;;;;22.79;40.41;100027.75;1683847;85;21571;-75
2022/06/16 10:54:15;;;;;;;2.22;1.52;;;;;;;22.84;39.88;100033.08;1688634;83;21785;-76
2022/06/16 10:56:41;;;;;;;3.40;1.95;;;;;;;22.85;39.70;100016.87;1689594;85;21048;-75
2022/06/16 10:59:25;;;;;;;1.95;1.15;;;;;;;22.90;39.92;100018.08;1689231;84;21577;-81
2022/06/16 11:02:04;;;;;;;4.15;1.45;;;;;;;22.95;39.94;100015.98;1690038;83;21138;-72
2022/06/16 11:04:39;;;;;;;2.50;1.55;;;;;;;23.07;39.63;100020.80;1635623;85;20991;-74
2022/06/16 11:07:05;;;;;;;4.20;1.77;;;;;;;23.18;39.06;100019.34;1674185;85;21113;-72
2022/06/16 11:09:34;;;;;;;3.40;1.35;;;;;;;23.35;38.30;100017.95;1667861;85;21583;-72
2022/06/16 11:12:09;;;;;;;1.77;1.45;;;;;;;23.51;38.16;100018.23;1651014;85;21052;-71
2022/06/16 11:14:45;;;;;;;2.35;1.77;;;;;;;23.64;37.63;100017.81;1621556;87;21057;-70
2022/06/16 11:17:28;;;;;;;1.90;1.52;;;;;;;23.68;37.46;100022.33;1682767;85;21138;-69
2022/06/16 11:20:17;;;;;;;2.65;1.60;;;;;;;23.69;37.03;100014.89;1682194;84;21350;-70
2022/06/16 11:22:46;;;;;;;2.02;1.45;;;;;;;23.73;36.95;100018.02;1686770;83;20989;-75
2022/06/16 11:25:36;;;;;;;6.10;3.77;;;;;;;23.79;36.69;100015.88;1689606;84;21025;-77
2022/06/16 11:28:14;;;;;;;1.95;1.77;;;;;;;23.75;36.72;100014.92;1671872;83;20945;-74
2022/06/16 11:30:45;;;;;;;2.42;1.55;;;;;;;23.73;36.91;100010.34;1685710;83;21100;-72
2022/06/16 11:36:49;;;;;;;2.83;1.60;;;;;;;23.80;36.78;100006.50;1690122;83;21056;-73
2022/06/16 11:39:40;;;;;;;7.30;1.92;;;;;;;23.89;36.45;100004.52;1710273;83;21032;-73
2022/06/16 11:42:30;;;;;;;1.82;1.40;;;;;;;24.11;34.40;100007.01;1705467;82;21514;-73
2022/06/16 11:45:25;;;;;;;3.42;1.32;;;;;;;24.29;33.08;100003.61;1694368;83;21128;-70
2022/06/16 11:48:22;;;;;;;2.25;1.35;;;;;;;24.45;31.75;100012.89;1679627;85;21745;-71
2022/06/16 11:50:57;;;;;;;5.75;2.30;;;;;;;24.60;31.31;99998.55;1677942;85;21514;-71
2022/06/16 11:53:39;;;;;;;6.58;2.05;;;;;;;24.74;32.23;99999.08;1672906;83;21092;-73
2022/06/16 11:56:47;;;;;;;1.92;1.30;;;;;;;24.92;32.25;99994.81;1678597;85;20997;-82
2022/06/16 12:00:06;;;;;;;4.17;1.62;;;;;;;25.13;32.29;100000.50;1679897;85;21605;-70
2022/06/16 12:03:17;;;;;;;4.33;2.30;;;;;;;25.34;30.69;99994.14;1679368;85;21165;-74
2022/06/16 12:06:14;;;;;;;2.58;2.10;;;;;;;25.39;30.85;99998.86;1679793;85;21044;-70
2022/06/16 12:09:13;;;;;;;3.20;1.80;;;;;;;25.53;31.71;100003.48;1684377;83;21016;-73
2022/06/16 12:12:23;;;;;;;2.92;2.17;;;;;;;25.61;31.77;99991.58;1654788;83;21034;-71
2022/06/16 12:15:01;;;;;;;2.17;1.70;;;;;;;25.58;32.23;99997.78;1689829;83;20974;-73
2022/06/16 12:17:51;;;;;;;5.70;1.80;;;;;;;25.63;31.87;99993.19;1677539;85;22033;-73
2022/06/16 12:20:32;;;;;;;2.87;1.62;;;;;;;25.59;30.95;99987.58;1664027;85;21538;-73
2022/06/16 12:23:10;;;;;;;3.50;2.10;;;;;;;25.50;30.54;99981.33;1678659;85;20997;-74
2022/06/16 12:25:57;;;;;;;2.58;1.40;;;;;;;25.53;30.79;99986.95;1664734;85;20973;-72
2022/06/16 12:28:48;;;;;;;3.25;2.02;;;;;;;25.70;30.97;99986.55;1673052;85;21022;-73